createdAt,value
2023-02-12T00:01:40.971Z,42.60
2023-02-12T00:04:09.858Z,43.10
2023-02-12T00:06:40.306Z,38.90
2023-02-12T00:09:08.668Z,40.50
2023-02-12T00:11:37.060Z,42.80
2023-02-12T00:14:05.893Z,37.20
2023-02-12T00:16:34.437Z,41.60
2023-02-12T00:19:03.023Z,42.00
2023-02-12T00:21:31.409Z,39.10
2023-02-12T00:23:59.702Z,37.20
2023-02-12T00:26:28.292Z,40.20
2023-02-12T00:28:57.079Z,40.50
2023-02-12T00:31:28.969Z,36.20
2023-02-12T00:34:01.015Z,36.90
2023-02-12T00:36:31.939Z,38.90
2023-02-12T00:39:00.958Z,37.30
2023-02-12T00:41:30.049Z,39.30
2023-02-12T00:43:58.652Z,43.70
2023-02-12T00:46:26.850Z,47.10
2023-02-12T00:48:55.611Z,45.50
2023-02-12T00:51:24.200Z,46.40
2023-02-12T00:53:52.382Z,45.20
2023-02-12T00:56:20.570Z,46.20
2023-02-12T00:58:51.098Z,47.70
2023-02-12T01:01:19.755Z,42.70
2023-02-12T01:03:48.579Z,37.20
2023-02-12T01:06:17.066Z,34.50
2023-02-12T01:08:51.610Z,37.70
2023-02-12T01:11:20.901Z,36.80
2023-02-12T01:13:50.207Z,37.00
2023-02-12T01:16:22.250Z,38.50
2023-02-12T01:18:55.827Z,33.50
2023-02-12T01:21:28.422Z,40.10
2023-02-12T01:23:58.244Z,39.80
2023-02-12T01:26:28.305Z,32.40
2023-02-12T01:29:01.537Z,33.60
2023-02-12T01:31:33.561Z,30.60
2023-02-12T01:34:03.892Z,31.30
2023-02-12T01:36:35.512Z,37.40
2023-02-12T01:39:06.007Z,36.90
2023-02-12T01:41:39.378Z,30.20
2023-02-12T01:46:43.042Z,26.80
2023-02-12T01:49:17.518Z,29.60
2023-02-12T01:51:48.063Z,27.40
2023-02-12T01:54:20.130Z,32.70
2023-02-12T01:56:49.470Z,28.10
2023-02-12T01:59:20.376Z,28.30
2023-02-12T02:01:49.016Z,29.60
2023-02-12T02:04:23.505Z,27.60
2023-02-12T02:07:03.544Z,30.10
2023-02-12T02:09:35.105Z,30.10
2023-02-12T02:12:23.027Z,31.80
2023-02-12T02:14:54.756Z,34.10
2023-02-12T02:17:40.877Z,30.10
2023-02-12T02:21:06.770Z,36.20
2023-02-12T02:23:35.156Z,31.30
2023-02-12T02:26:23.189Z,27.20
2023-02-12T02:29:29.844Z,27.30
2023-02-12T02:32:17.278Z,27.60
2023-02-12T02:34:58.957Z,27.50
2023-02-12T02:37:49.335Z,30.90
2023-02-12T02:40:24.807Z,28.10
2023-02-12T02:42:53.471Z,24.10
2023-02-12T02:45:35.264Z,25.20
2023-02-12T02:48:15.418Z,26.70
2023-02-12T02:50:53.214Z,23.80
2023-02-12T02:53:32.450Z,25.30
2023-02-12T02:56:06.051Z,23.00
2023-02-12T02:58:46.716Z,22.30
2023-02-12T03:01:21.688Z,25.30
2023-02-12T03:03:58.025Z,22.50
2023-02-12T03:06:36.170Z,23.60
2023-02-12T03:09:15.353Z,25.50
2023-02-12T03:11:44.043Z,25.70
2023-02-12T03:14:27.783Z,28.10
2023-02-12T03:17:28.706Z,23.80
2023-02-12T03:20:05.270Z,27.30
2023-02-12T03:22:39.904Z,24.90
2023-02-12T03:25:18.321Z,25.00
2023-02-12T03:27:58.548Z,27.10
2023-02-12T03:30:39.417Z,29.80
2023-02-12T03:33:07.728Z,29.10
2023-02-12T03:35:44.298Z,24.50
2023-02-12T03:38:26.604Z,21.40
2023-02-12T03:41:09.318Z,21.40
2023-02-12T03:43:57.956Z,28.30
2023-02-12T03:46:47.270Z,23.50
2023-02-12T03:49:24.755Z,25.30
2023-02-12T03:51:54.122Z,24.50
2023-02-12T03:54:23.232Z,26.40
2023-02-12T03:57:12.391Z,22.70
2023-02-12T03:59:41.495Z,25.10
2023-02-12T04:02:10.497Z,25.60
2023-02-12T04:04:39.472Z,28.10
2023-02-12T04:07:08.436Z,26.50
2023-02-12T04:09:36.853Z,23.50
2023-02-12T04:12:28.317Z,26.60
2023-02-12T04:15:17.725Z,27.70
2023-02-12T04:18:10.687Z,26.70
2023-02-12T04:20:54.920Z,25.50
2023-02-12T04:26:49.919Z,27.00
2023-02-12T04:32:31.025Z,30.60
2023-02-12T04:34:59.385Z,26.70
2023-02-12T04:37:42.285Z,26.10
2023-02-12T04:40:14.786Z,26.00
2023-02-12T04:42:49.067Z,24.90
2023-02-12T04:45:29.558Z,22.80
2023-02-12T04:47:58.049Z,26.10
2023-02-12T04:50:28.580Z,25.50
2023-02-12T04:52:56.760Z,24.40
2023-02-12T04:55:25.245Z,29.50
2023-02-12T04:57:53.534Z,30.30
2023-02-12T05:00:22.369Z,24.10
2023-02-12T05:02:51.220Z,24.70
2023-02-12T05:05:21.087Z,23.70
2023-02-12T05:07:50.003Z,21.90
2023-02-12T05:10:18.724Z,16.90
2023-02-12T05:12:47.219Z,19.80
2023-02-12T05:15:16.005Z,18.60
2023-02-12T05:17:45.943Z,19.10
2023-02-12T05:20:14.512Z,22.00
2023-02-12T05:22:43.003Z,19.00
2023-02-12T05:25:11.904Z,19.10
2023-02-12T05:27:40.280Z,24.40
2023-02-12T05:30:09.681Z,20.70
2023-02-12T05:32:38.083Z,22.40
2023-02-12T05:35:07.358Z,22.80
2023-02-12T05:37:36.851Z,20.00
2023-02-12T05:40:07.149Z,16.60
2023-02-12T05:42:35.499Z,17.00
2023-02-12T05:45:04.342Z,18.40
2023-02-12T05:47:32.573Z,18.00
2023-02-12T05:50:01.367Z,19.00
2023-02-12T05:52:30.168Z,19.30
2023-02-12T05:54:58.445Z,19.70
2023-02-12T05:57:26.830Z,17.90
2023-02-12T05:59:55.010Z,19.10
2023-02-12T06:02:23.656Z,19.90
2023-02-12T06:04:52.390Z,21.30
2023-02-12T06:07:21.808Z,19.00
2023-02-12T06:09:50.895Z,19.90
2023-02-12T06:12:19.384Z,23.70
2023-02-12T06:14:47.573Z,20.40
2023-02-12T06:17:15.741Z,20.60
2023-02-12T06:19:43.920Z,20.60
2023-02-12T06:22:12.414Z,21.80
2023-02-12T06:24:40.790Z,25.60
2023-02-12T06:27:09.176Z,23.90
2023-02-12T06:29:37.566Z,23.60
2023-02-12T06:32:08.689Z,23.90
2023-02-12T06:34:37.301Z,21.60
2023-02-12T06:37:06.304Z,23.40
2023-02-12T06:39:34.487Z,20.80
2023-02-12T06:42:02.970Z,23.50
2023-02-12T06:44:31.354Z,25.20
2023-02-12T06:46:59.814Z,23.30
2023-02-12T06:49:28.329Z,26.30
2023-02-12T06:51:56.710Z,23.70
2023-02-12T06:54:24.890Z,23.60
2023-02-12T06:56:53.070Z,24.00
2023-02-12T06:59:21.663Z,24.40
2023-02-12T07:01:50.150Z,22.20
2023-02-12T07:04:18.768Z,25.30
2023-02-12T07:06:47.233Z,25.40
2023-02-12T07:09:15.711Z,25.50
2023-02-12T07:11:44.200Z,26.40
2023-02-12T07:14:17.200Z,24.00
2023-02-12T07:16:45.657Z,30.60
2023-02-12T07:19:14.264Z,22.00
2023-02-12T07:21:42.973Z,23.60
2023-02-12T07:24:12.547Z,20.80
2023-02-12T07:26:41.895Z,22.10
2023-02-12T07:29:10.610Z,26.20
2023-02-12T07:31:39.910Z,30.70
2023-02-12T07:34:08.050Z,24.60
2023-02-12T07:36:36.637Z,23.90
2023-02-12T07:39:05.537Z,22.60
2023-02-12T07:41:35.965Z,22.10
2023-02-12T07:44:10.690Z,21.50
2023-02-12T07:46:48.651Z,23.50
2023-02-12T07:49:20.542Z,23.20
2023-02-12T07:51:50.518Z,24.00
2023-02-12T07:54:18.901Z,22.80
2023-02-12T07:56:47.596Z,20.60
2023-02-12T07:59:18.379Z,23.10
2023-02-12T08:01:52.109Z,23.10
2023-02-12T08:04:23.717Z,21.90
2023-02-12T08:06:54.549Z,21.50
2023-02-12T08:09:27.128Z,17.50
2023-02-12T08:11:56.004Z,22.50
2023-02-12T08:14:24.266Z,20.90
2023-02-12T08:16:53.362Z,22.20
2023-02-12T08:19:26.217Z,16.50
2023-02-12T08:21:56.349Z,20.20
2023-02-12T08:24:25.856Z,19.40
2023-02-12T08:26:54.271Z,20.40
2023-02-12T08:29:26.345Z,20.50
2023-02-12T08:31:59.758Z,18.80
2023-02-12T08:34:30.886Z,18.60
2023-02-12T08:36:59.678Z,18.80
2023-02-12T08:39:29.593Z,18.00
2023-02-12T08:41:59.627Z,14.50
2023-02-12T08:44:28.741Z,13.50
2023-02-12T08:46:57.308Z,15.70
2023-02-12T08:49:30.564Z,14.20
2023-02-12T08:52:01.969Z,13.00
2023-02-12T08:54:31.733Z,16.20
2023-02-12T08:57:02.138Z,12.90
2023-02-12T08:59:31.046Z,13.10
2023-02-12T09:02:00.837Z,11.40
2023-02-12T09:04:30.425Z,12.40
2023-02-12T09:06:59.017Z,9.70
2023-02-12T09:09:27.305Z,9.10
2023-02-12T09:11:55.786Z,6.60
2023-02-12T09:14:24.948Z,5.60
2023-02-12T09:16:54.669Z,7.10
2023-02-12T09:19:23.425Z,5.80
2023-02-12T09:21:55.497Z,20.60
2023-02-12T09:24:27.841Z,2.30
2023-02-12T09:26:57.268Z,3.30
2023-02-12T09:29:25.830Z,2.30
2023-02-12T09:31:54.322Z,3.10
2023-02-12T09:34:22.763Z,1.40
2023-02-12T09:36:51.082Z,2.80
2023-02-12T09:39:22.336Z,2.10
2023-02-12T09:41:50.613Z,2.90
2023-02-12T09:44:22.584Z,3.10
2023-02-12T09:47:20.656Z,2.50
2023-02-12T09:50:00.898Z,2.00
2023-02-12T09:52:30.365Z,1.20
2023-02-12T09:54:59.457Z,2.20
2023-02-12T09:57:35.881Z,2.20
2023-02-12T10:00:31.483Z,1.90
2023-02-12T10:03:05.971Z,1.70
2023-02-12T10:05:41.259Z,1.30
2023-02-12T10:08:46.072Z,2.50
2023-02-12T10:11:26.016Z,1.30
2023-02-12T10:14:42.304Z,1.10
2023-02-12T10:17:37.005Z,1.10
2023-02-12T10:20:41.513Z,1.70
2023-02-12T10:23:28.737Z,1.00
2023-02-12T10:26:00.067Z,1.10
2023-02-12T10:28:35.889Z,1.10
2023-02-12T10:31:16.418Z,2.30
2023-02-12T10:33:49.137Z,2.60
2023-02-12T10:36:24.492Z,0.90
2023-02-12T10:38:59.221Z,1.00
2023-02-12T10:41:30.573Z,1.10
2023-02-12T10:44:00.285Z,1.60
2023-02-12T10:46:32.215Z,0.70
2023-02-12T10:49:01.131Z,1.40
2023-02-12T10:51:49.028Z,1.30
2023-02-12T10:54:44.077Z,1.10
2023-02-12T10:57:31.307Z,1.00
2023-02-12T11:00:25.047Z,1.80
2023-02-12T11:03:04.593Z,2.20
2023-02-12T11:05:36.598Z,2.90
2023-02-12T11:08:06.369Z,1.30
2023-02-12T11:10:42.232Z,0.60
2023-02-12T11:13:28.211Z,0.80
2023-02-12T11:15:56.821Z,2.20
2023-02-12T11:18:28.865Z,3.60
2023-02-12T11:20:58.549Z,0.60
2023-02-12T11:23:38.137Z,1.20
2023-02-12T11:26:07.638Z,1.20
2023-02-12T11:28:37.273Z,1.00
2023-02-12T11:31:23.418Z,1.20
2023-02-12T11:34:17.467Z,1.40
2023-02-12T11:36:50.804Z,0.70
2023-02-12T11:39:24.923Z,4.10
2023-02-12T11:41:59.942Z,1.40
2023-02-12T11:44:38.566Z,1.90
2023-02-12T11:47:10.945Z,1.70
2023-02-12T11:49:44.383Z,4.70
2023-02-12T11:52:22.018Z,1.70
2023-02-12T11:54:53.806Z,2.70
2023-02-12T11:57:48.587Z,2.90
2023-02-12T12:00:29.563Z,1.40
2023-02-12T12:03:13.807Z,2.60
2023-02-12T12:05:54.796Z,2.20
2023-02-12T12:08:36.265Z,4.00
2023-02-12T12:11:13.038Z,2.70
2023-02-12T12:13:51.754Z,6.70
2023-02-12T12:16:49.716Z,1.60
2023-02-12T12:19:53.313Z,6.80
2023-02-12T12:22:48.598Z,1.60
2023-02-12T12:25:27.583Z,7.00
2023-02-12T12:28:41.014Z,0.70
2023-02-12T12:31:36.171Z,7.50
2023-02-12T12:34:13.429Z,1.10
2023-02-12T12:37:06.370Z,2.20
2023-02-12T12:39:45.411Z,7.30
2023-02-12T12:43:11.804Z,6.30
2023-02-12T12:45:43.294Z,8.70
2023-02-12T12:48:34.425Z,3.40
2023-02-12T12:51:25.271Z,6.90
2023-02-12T12:54:11.654Z,0.90
2023-02-12T12:56:45.268Z,16.30
2023-02-12T12:59:25.309Z,2.20
2023-02-12T13:01:56.767Z,0.90
2023-02-12T13:04:49.708Z,2.50
2023-02-12T13:07:39.381Z,1.50
2023-02-12T13:10:23.420Z,1.80
2023-02-12T13:15:54.513Z,1.00
2023-02-12T13:18:55.294Z,0.90
2023-02-12T13:21:37.912Z,1.40
2023-02-12T13:24:28.706Z,0.90
2023-02-12T13:27:04.787Z,6.70
2023-02-12T13:29:42.148Z,1.20
2023-02-12T13:32:22.750Z,5.20
2023-02-12T13:34:53.614Z,1.40
2023-02-12T13:37:40.354Z,2.40
2023-02-12T13:40:19.110Z,1.70
2023-02-12T13:43:06.184Z,2.20
2023-02-12T13:45:44.949Z,5.40
2023-02-12T13:48:54.634Z,4.20
2023-02-12T13:51:31.509Z,6.80
2023-02-12T13:54:21.800Z,1.30
2023-02-12T13:57:14.953Z,3.30
2023-02-12T13:59:44.257Z,3.40
2023-02-12T14:02:12.902Z,1.90
2023-02-12T14:04:48.080Z,2.80
2023-02-12T14:07:16.961Z,2.40
2023-02-12T14:09:51.095Z,11.00
2023-02-12T14:12:25.717Z,2.20
2023-02-12T14:15:31.268Z,3.30
2023-02-12T14:18:02.608Z,1.70
2023-02-12T14:20:32.421Z,4.40
2023-02-12T14:23:02.488Z,4.70
2023-02-12T14:25:44.442Z,4.20
2023-02-12T14:28:37.194Z,1.60
2023-02-12T14:31:23.895Z,1.00
2023-02-12T14:34:13.031Z,2.20
2023-02-12T14:36:46.636Z,4.60
2023-02-12T14:41:50.268Z,4.30
2023-02-12T14:44:18.574Z,2.10
2023-02-12T14:46:51.120Z,5.40
2023-02-12T14:49:46.929Z,5.80
2023-02-12T14:52:40.604Z,1.60
2023-02-12T14:55:22.588Z,3.30
2023-02-12T14:57:55.883Z,3.30
2023-02-12T15:00:34.525Z,6.30
2023-02-12T15:03:15.596Z,2.30
2023-02-12T15:06:10.769Z,8.30
2023-02-12T15:08:47.750Z,8.90
2023-02-12T15:11:38.856Z,7.00
2023-02-12T15:14:28.425Z,3.00
2023-02-12T15:17:06.224Z,8.60
2023-02-12T15:19:37.473Z,3.80
2023-02-12T15:22:18.859Z,6.00
2023-02-12T15:24:47.346Z,6.30
2023-02-12T15:27:16.641Z,4.50
2023-02-12T15:29:55.362Z,7.40
2023-02-12T15:32:29.146Z,4.40
2023-02-12T15:37:30.890Z,6.10
2023-02-12T15:40:08.860Z,9.30
2023-02-12T15:42:40.563Z,7.90
2023-02-12T15:45:14.955Z,7.70
2023-02-12T15:47:45.102Z,7.00
2023-02-12T15:50:18.069Z,9.60
2023-02-12T15:52:48.176Z,12.10
2023-02-12T15:55:20.553Z,9.30
2023-02-12T15:57:54.496Z,8.50
2023-02-12T16:03:31.961Z,10.80
2023-02-12T16:06:05.256Z,8.80
2023-02-12T16:08:35.738Z,12.00
2023-02-12T16:11:14.234Z,8.90
2023-02-12T16:13:48.328Z,10.00
2023-02-12T16:16:22.472Z,13.90
2023-02-12T16:19:05.675Z,11.40
2023-02-12T16:21:38.306Z,17.40
2023-02-12T16:24:39.060Z,9.40
2023-02-12T16:27:24.642Z,12.70
2023-02-12T16:29:59.676Z,8.50
2023-02-12T16:32:30.311Z,9.70
2023-02-12T16:37:39.051Z,16.40
2023-02-12T16:40:13.480Z,22.20
2023-02-12T16:42:47.808Z,25.10
2023-02-12T16:45:26.718Z,16.50
2023-02-12T16:47:59.809Z,29.60
2023-02-12T16:50:34.229Z,19.30
2023-02-12T16:53:06.915Z,9.30
2023-02-12T16:55:36.940Z,5.40
2023-02-12T16:58:05.940Z,8.50
2023-02-12T17:00:34.523Z,6.90
2023-02-12T17:03:03.025Z,8.80
2023-02-12T17:05:31.978Z,10.20
2023-02-12T17:08:00.394Z,11.40
2023-02-12T17:10:28.882Z,14.00
2023-02-12T17:12:57.576Z,15.10
2023-02-12T17:15:34.668Z,16.80
2023-02-12T17:18:03.396Z,13.60
2023-02-12T17:20:31.837Z,14.60
2023-02-12T17:23:01.250Z,22.10
2023-02-12T17:25:30.566Z,17.40
2023-02-12T17:27:59.069Z,14.80
2023-02-12T17:30:29.267Z,16.70
2023-02-12T17:32:57.558Z,22.50
2023-02-12T17:35:26.356Z,26.50
2023-02-12T17:37:54.796Z,22.00
2023-02-12T17:40:23.521Z,29.00
2023-02-12T17:42:52.109Z,24.40
2023-02-12T17:45:20.704Z,31.10
2023-02-12T17:47:50.209Z,31.60
2023-02-12T17:50:19.210Z,32.90
2023-02-12T17:52:47.999Z,72.70
2023-02-12T17:55:18.017Z,37.50
2023-02-12T17:57:53.772Z,41.70
2023-02-12T18:00:23.709Z,25.10
2023-02-12T18:02:52.964Z,30.50
2023-02-12T18:05:21.893Z,22.00
2023-02-12T18:07:50.687Z,17.40
2023-02-12T18:10:22.139Z,16.70
2023-02-12T18:12:50.628Z,19.60
2023-02-12T18:15:21.366Z,16.90
2023-02-12T18:17:49.961Z,26.40
2023-02-12T18:20:18.646Z,33.80
2023-02-12T18:22:47.811Z,34.90
2023-02-12T18:25:18.074Z,34.70
2023-02-12T18:27:47.380Z,20.20
2023-02-12T18:30:16.390Z,27.90
2023-02-12T18:32:44.769Z,22.10
2023-02-12T18:35:13.248Z,15.70
2023-02-12T18:37:43.361Z,22.70
2023-02-12T18:40:12.387Z,17.20
2023-02-12T18:42:41.268Z,9.40
2023-02-12T18:45:10.478Z,10.50
2023-02-12T18:47:38.761Z,14.20
2023-02-12T18:50:08.306Z,16.00
2023-02-12T18:52:37.552Z,15.30
2023-02-12T18:55:07.400Z,13.70
2023-02-12T18:57:35.769Z,14.10
2023-02-12T19:00:05.231Z,27.30
2023-02-12T19:02:33.563Z,25.00
2023-02-12T19:05:04.758Z,11.90
2023-02-12T19:07:33.109Z,11.10
2023-02-12T19:10:01.440Z,13.00
2023-02-12T19:12:30.279Z,14.00
2023-02-12T19:14:58.654Z,13.40
2023-02-12T19:17:28.164Z,20.20
2023-02-12T19:19:56.653Z,20.30
2023-02-12T19:22:25.240Z,13.30
2023-02-12T19:24:53.734Z,16.10
2023-02-12T19:27:22.320Z,9.70
2023-02-12T19:29:50.800Z,10.30
2023-02-12T19:32:19.024Z,12.90
2023-02-12T19:34:47.984Z,9.60
2023-02-12T19:37:16.570Z,18.80
2023-02-12T19:39:44.955Z,16.90
2023-02-12T19:42:15.029Z,12.00
2023-02-12T19:44:44.629Z,12.90
2023-02-12T19:47:12.985Z,14.70
2023-02-12T19:49:42.512Z,15.20
2023-02-12T19:52:11.176Z,13.30
2023-02-12T19:54:39.465Z,10.70
2023-02-12T19:57:09.861Z,8.80
2023-02-12T19:59:39.135Z,14.00
2023-02-12T20:02:07.480Z,15.00
2023-02-12T20:04:35.965Z,12.80
2023-02-12T20:07:05.068Z,7.50
2023-02-12T20:09:34.169Z,5.30
2023-02-12T20:12:03.696Z,6.00
2023-02-12T20:14:32.165Z,5.70
2023-02-12T20:17:00.963Z,6.00
2023-02-12T20:19:32.209Z,8.00
2023-02-12T20:22:02.313Z,21.30
2023-02-12T20:24:34.111Z,6.30
2023-02-12T20:27:03.676Z,8.10
2023-02-12T20:29:33.019Z,7.40
2023-02-12T20:32:01.490Z,11.80
2023-02-12T20:34:34.769Z,5.00
2023-02-12T20:37:10.858Z,9.50
2023-02-12T20:39:39.242Z,6.80
2023-02-12T20:42:07.728Z,8.70
2023-02-12T20:44:36.111Z,6.50
2023-02-12T20:47:04.397Z,7.50
2023-02-12T20:49:32.674Z,6.90
2023-02-12T20:52:01.279Z,7.60
2023-02-12T20:54:29.546Z,8.80
2023-02-12T20:56:58.030Z,7.40
2023-02-12T20:59:26.624Z,10.80
2023-02-12T21:01:55.121Z,12.40
2023-02-12T21:04:23.703Z,7.60
2023-02-12T21:06:52.395Z,8.90
2023-02-12T21:09:20.777Z,9.70
2023-02-12T21:11:49.775Z,7.70
2023-02-12T21:14:22.426Z,8.30
2023-02-12T21:16:54.385Z,10.10
2023-02-12T21:19:23.316Z,8.60
2023-02-12T21:21:52.115Z,9.10
2023-02-12T21:24:26.129Z,12.00
2023-02-12T21:26:55.742Z,11.20
2023-02-12T21:29:24.216Z,7.80
2023-02-12T21:31:52.762Z,6.20
2023-02-12T21:34:23.187Z,7.10
2023-02-12T21:36:55.094Z,10.40
2023-02-12T21:39:27.669Z,6.90
2023-02-12T21:42:03.109Z,7.70
2023-02-12T21:44:35.489Z,7.00
2023-02-12T21:47:05.405Z,11.60
2023-02-12T21:49:33.827Z,8.00
2023-02-12T21:52:04.443Z,7.90
2023-02-12T21:54:33.548Z,12.00
2023-02-12T21:57:01.935Z,9.20
2023-02-12T21:59:32.406Z,9.10
2023-02-12T22:02:02.048Z,9.50
2023-02-12T22:04:30.693Z,7.10
2023-02-12T22:07:03.530Z,10.10
2023-02-12T22:09:32.369Z,9.70
2023-02-12T22:12:00.764Z,8.70
2023-02-12T22:14:29.323Z,8.40
2023-02-12T22:16:57.609Z,18.40
2023-02-12T22:19:25.872Z,13.90
2023-02-12T22:21:54.354Z,12.20
2023-02-12T22:24:22.856Z,7.90
2023-02-12T22:26:51.229Z,6.00
2023-02-12T22:29:19.992Z,7.20
2023-02-12T22:31:48.893Z,8.50
2023-02-12T22:34:19.167Z,8.70
2023-02-12T22:36:48.458Z,8.30
2023-02-12T22:39:17.936Z,8.10
2023-02-12T22:41:46.650Z,12.00
2023-02-12T22:44:17.018Z,12.40
2023-02-12T22:46:45.677Z,12.30
2023-02-12T22:49:14.666Z,8.20
2023-02-12T22:51:43.050Z,8.20
2023-02-12T22:54:15.430Z,10.30
2023-02-12T22:56:44.655Z,13.90
2023-02-12T22:59:13.435Z,8.60
2023-02-12T23:01:42.521Z,8.00
2023-02-12T23:04:16.764Z,12.40
2023-02-12T23:06:45.865Z,9.30
2023-02-12T23:09:17.877Z,9.70
2023-02-12T23:11:47.033Z,13.90
2023-02-12T23:14:15.287Z,12.60
2023-02-12T23:16:43.939Z,13.70
2023-02-12T23:19:13.168Z,11.60
2023-02-12T23:21:42.087Z,14.50
2023-02-12T23:24:15.129Z,9.90
2023-02-12T23:26:43.802Z,11.40
2023-02-12T23:29:12.271Z,8.90
2023-02-12T23:31:40.766Z,8.40
2023-02-12T23:34:09.448Z,10.10
2023-02-12T23:36:37.629Z,13.60
2023-02-12T23:39:06.259Z,15.20
2023-02-12T23:41:34.807Z,12.70
2023-02-12T23:44:04.037Z,11.40
2023-02-12T23:46:32.412Z,17.70
2023-02-12T23:49:00.894Z,12.10
2023-02-12T23:51:30.927Z,11.70
2023-02-12T23:53:59.196Z,14.50
2023-02-12T23:56:27.735Z,13.90
2023-02-12T23:58:57.593Z,21.40
